createdAt,value
2019-03-30T00:02:05.211Z,24.77
2019-03-30T00:04:33.526Z,24.63
2019-03-30T00:07:01.841Z,22.77
2019-03-30T00:09:30.186Z,25.55
2019-03-30T00:11:58.636Z,23.40
2019-03-30T00:14:27.079Z,24.60
2019-03-30T00:16:55.377Z,24.85
2019-03-30T00:19:34.473Z,28.35
2019-03-30T00:21:54.096Z,24.77
2019-03-30T00:24:22.399Z,24.85
2019-03-30T00:26:50.693Z,24.47
2019-03-30T00:29:19.079Z,25.75
2019-03-30T00:31:47.392Z,25.82
2019-03-30T00:34:15.982Z,26.05
2019-03-30T00:36:44.562Z,24.52
2019-03-30T00:39:12.870Z,26.70
2019-03-30T00:41:41.184Z,26.93
2019-03-30T00:44:09.487Z,24.10
2019-03-30T00:46:37.823Z,26.60
2019-03-30T00:49:06.578Z,27.90
2019-03-30T00:51:34.902Z,27.93
2019-03-30T00:54:03.197Z,29.60
2019-03-30T00:56:31.505Z,24.80
2019-03-30T00:58:59.807Z,24.47
2019-03-30T01:01:28.095Z,26.02
2019-03-30T01:03:56.401Z,24.18
2019-03-30T01:06:24.701Z,28.55
2019-03-30T01:08:53.030Z,27.70
2019-03-30T01:11:21.653Z,28.32
2019-03-30T01:13:49.992Z,28.00
2019-03-30T01:16:18.290Z,26.07
2019-03-30T01:18:46.604Z,28.52
2019-03-30T01:21:14.904Z,26.75
2019-03-30T01:23:43.213Z,26.87
2019-03-30T01:26:11.889Z,27.85
2019-03-30T01:28:40.181Z,28.23
2019-03-30T01:31:08.501Z,26.85
2019-03-30T01:33:36.811Z,27.10
2019-03-30T01:36:05.113Z,28.65
2019-03-30T01:38:33.666Z,27.87
2019-03-30T01:41:02.305Z,26.90
2019-03-30T01:43:30.611Z,30.73
2019-03-30T01:45:59.379Z,26.23
2019-03-30T01:48:27.769Z,27.95
2019-03-30T01:50:56.117Z,27.03
2019-03-30T01:53:24.409Z,27.95
2019-03-30T01:55:52.713Z,25.85
2019-03-30T01:58:21.019Z,24.20
2019-03-30T02:00:49.519Z,22.13
2019-03-30T02:03:17.969Z,26.37
2019-03-30T02:05:46.277Z,23.27
2019-03-30T02:08:14.581Z,26.77
2019-03-30T02:10:45.304Z,24.55
2019-03-30T02:13:13.683Z,24.23
2019-03-30T02:15:41.990Z,26.48
2019-03-30T02:18:10.373Z,24.82
2019-03-30T02:20:43.534Z,26.05
2019-03-30T02:23:11.909Z,31.70
2019-03-30T02:25:40.778Z,30.57
2019-03-30T02:28:09.799Z,40.05
2019-03-30T02:30:38.088Z,40.65
2019-03-30T02:33:06.642Z,38.35
2019-03-30T02:35:35.002Z,37.93
2019-03-30T02:38:03.365Z,36.50
2019-03-30T02:40:31.654Z,36.53
2019-03-30T02:43:00.506Z,37.08
2019-03-30T02:45:29.262Z,39.40
2019-03-30T02:47:57.843Z,40.28
2019-03-30T02:50:26.154Z,34.35
2019-03-30T02:52:54.531Z,32.70
2019-03-30T02:55:22.840Z,32.30
2019-03-30T02:57:51.189Z,29.87
2019-03-30T03:00:20.095Z,26.00
2019-03-30T03:02:48.395Z,26.43
2019-03-30T03:05:16.953Z,26.07
2019-03-30T03:07:45.482Z,25.60
2019-03-30T03:10:16.325Z,25.13
2019-03-30T03:12:44.628Z,24.35
2019-03-30T03:15:13.008Z,22.95
2019-03-30T03:17:41.303Z,24.72
2019-03-30T03:20:10.242Z,24.85
2019-03-30T03:22:38.562Z,24.93
2019-03-30T03:25:07.136Z,25.37
2019-03-30T03:27:35.473Z,27.37
2019-03-30T03:30:04.330Z,23.18
2019-03-30T03:32:32.656Z,24.72
2019-03-30T03:35:01.037Z,24.65
2019-03-30T03:37:43.205Z,27.80
2019-03-30T03:39:59.372Z,22.30
2019-03-30T03:42:27.697Z,24.00
2019-03-30T03:44:56.287Z,23.20
2019-03-30T03:47:24.605Z,26.17
2019-03-30T03:49:52.898Z,24.85
2019-03-30T03:52:21.370Z,22.73
2019-03-30T03:54:50.298Z,25.43
2019-03-30T03:57:19.574Z,26.02
2019-03-30T03:59:49.642Z,26.00
2019-03-30T04:02:18.341Z,26.37
2019-03-30T04:04:47.773Z,23.90
2019-03-30T04:07:17.799Z,23.02
2019-03-30T04:09:47.718Z,23.23
2019-03-30T04:12:17.093Z,22.62
2019-03-30T04:14:48.921Z,25.90
2019-03-30T04:17:17.248Z,23.92
2019-03-30T04:19:45.557Z,24.25
2019-03-30T04:22:13.883Z,22.77
2019-03-30T04:24:42.187Z,22.50
2019-03-30T04:27:10.505Z,22.62
2019-03-30T04:29:38.826Z,25.00
2019-03-30T04:32:07.286Z,22.82
2019-03-30T04:34:35.678Z,23.97
2019-03-30T04:37:03.979Z,20.60
2019-03-30T04:39:32.312Z,23.40
2019-03-30T04:42:00.600Z,21.33
2019-03-30T04:44:29.196Z,22.20
2019-03-30T04:46:57.554Z,20.70
2019-03-30T04:49:25.857Z,20.72
2019-03-30T04:51:57.689Z,19.70
2019-03-30T04:54:24.506Z,22.50
2019-03-30T04:56:52.820Z,22.27
2019-03-30T04:59:21.116Z,21.50
2019-03-30T05:01:49.676Z,22.62
2019-03-30T05:04:18.054Z,24.47
2019-03-30T05:06:46.371Z,28.20
2019-03-30T05:09:14.657Z,22.42
2019-03-30T05:11:42.991Z,25.57
2019-03-30T05:14:11.277Z,24.25
2019-03-30T05:16:39.606Z,25.70
2019-03-30T05:19:07.930Z,22.37
2019-03-30T05:21:36.327Z,21.20
2019-03-30T05:24:04.622Z,21.73
2019-03-30T05:26:32.912Z,22.82
2019-03-30T05:29:01.233Z,23.30
2019-03-30T05:31:29.603Z,23.47
2019-03-30T05:33:57.941Z,24.12
2019-03-30T05:36:26.488Z,20.57
2019-03-30T05:38:54.797Z,20.12
2019-03-30T05:41:23.097Z,19.97
2019-03-30T05:43:51.408Z,21.52
2019-03-30T05:46:19.733Z,22.60
2019-03-30T05:48:48.063Z,26.42
2019-03-30T05:51:16.357Z,19.23
2019-03-30T05:53:44.661Z,19.95
2019-03-30T05:56:12.973Z,19.30
2019-03-30T05:58:41.269Z,20.12
2019-03-30T06:01:09.637Z,21.55
2019-03-30T06:03:37.971Z,18.00
2019-03-30T06:06:06.284Z,17.92
2019-03-30T06:08:34.584Z,20.60
2019-03-30T06:11:03.153Z,20.43
2019-03-30T06:13:31.469Z,17.00
2019-03-30T06:15:59.756Z,22.40
2019-03-30T06:18:28.058Z,18.73
2019-03-30T06:20:56.374Z,18.50
2019-03-30T06:23:24.679Z,18.90
2019-03-30T06:25:52.989Z,17.82
2019-03-30T06:28:21.389Z,18.37
2019-03-30T06:30:49.722Z,20.77
2019-03-30T06:33:18.049Z,21.60
2019-03-30T06:35:46.700Z,17.40
2019-03-30T06:38:15.286Z,21.40
2019-03-30T06:40:43.836Z,18.50
2019-03-30T06:43:12.145Z,21.27
2019-03-30T06:45:40.470Z,20.25
2019-03-30T06:48:08.757Z,17.87
2019-03-30T06:50:37.083Z,16.42
2019-03-30T06:53:05.392Z,16.50
2019-03-30T06:55:33.711Z,19.50
2019-03-30T06:58:02.027Z,17.57
2019-03-30T07:00:35.121Z,20.82
2019-03-30T07:03:04.873Z,17.83
2019-03-30T07:05:36.354Z,20.72
2019-03-30T07:08:04.769Z,17.95
2019-03-30T07:10:33.225Z,16.10
2019-03-30T07:13:03.445Z,19.02
2019-03-30T07:15:33.082Z,16.15
2019-03-30T07:18:01.557Z,17.20
2019-03-30T07:20:30.217Z,18.77
2019-03-30T07:23:11.390Z,17.50
2019-03-30T07:25:28.913Z,17.20
2019-03-30T07:27:57.604Z,17.75
2019-03-30T07:30:25.915Z,15.95
2019-03-30T07:32:54.408Z,18.62
2019-03-30T07:35:22.722Z,18.80
2019-03-30T07:37:51.059Z,16.60
2019-03-30T07:40:19.348Z,19.35
2019-03-30T07:42:47.661Z,22.58
2019-03-30T07:45:16.152Z,18.20
2019-03-30T07:47:44.458Z,21.00
2019-03-30T07:50:13.223Z,18.10
2019-03-30T07:52:41.535Z,17.25
2019-03-30T07:55:09.992Z,15.97
2019-03-30T07:57:38.291Z,21.97
2019-03-30T08:00:08.376Z,16.57
2019-03-30T08:02:36.690Z,20.03
2019-03-30T08:05:06.874Z,19.27
2019-03-30T08:07:35.687Z,17.73
2019-03-30T08:10:05.015Z,16.90
2019-03-30T08:12:33.478Z,18.25
2019-03-30T08:15:01.804Z,17.62
2019-03-30T08:17:30.409Z,18.83
2019-03-30T08:19:58.712Z,18.20
2019-03-30T08:22:27.039Z,19.15
2019-03-30T08:24:55.646Z,19.12
2019-03-30T08:27:23.963Z,17.17
2019-03-30T08:29:52.272Z,21.20
2019-03-30T08:32:20.584Z,17.40
2019-03-30T08:34:49.169Z,20.25
2019-03-30T08:37:17.506Z,18.25
2019-03-30T08:39:46.124Z,19.92
2019-03-30T08:42:14.460Z,19.42
2019-03-30T08:44:42.830Z,24.77
2019-03-30T08:47:11.455Z,20.23
2019-03-30T08:49:39.773Z,19.30
2019-03-30T08:52:08.436Z,21.52
2019-03-30T08:54:36.760Z,20.32
2019-03-30T08:57:05.063Z,17.67
2019-03-30T08:59:33.399Z,18.37
2019-03-30T09:02:01.712Z,20.23
2019-03-30T09:04:30.019Z,18.82
2019-03-30T09:06:58.596Z,21.10
2019-03-30T09:09:26.906Z,17.37
2019-03-30T09:11:55.206Z,18.53
2019-03-30T09:14:23.509Z,19.70
2019-03-30T09:16:51.834Z,15.08
2019-03-30T09:19:20.136Z,18.70
2019-03-30T09:21:48.449Z,25.97
2019-03-30T09:24:17.040Z,20.10
2019-03-30T09:26:45.346Z,20.43
2019-03-30T09:29:13.721Z,14.53
2019-03-30T09:31:42.047Z,14.50
2019-03-30T09:34:10.650Z,21.82
2019-03-30T09:36:39.098Z,24.30
2019-03-30T09:39:07.488Z,25.50
2019-03-30T09:41:36.096Z,17.83
2019-03-30T09:44:04.405Z,15.20
2019-03-30T09:46:32.708Z,22.82
2019-03-30T09:49:00.997Z,17.27
2019-03-30T09:51:29.320Z,17.40
2019-03-30T09:53:57.629Z,24.20
2019-03-30T09:56:26.260Z,20.20
2019-03-30T09:58:54.561Z,16.48
2019-03-30T10:01:22.940Z,14.50
2019-03-30T10:03:51.282Z,15.75
2019-03-30T10:06:19.600Z,13.60
2019-03-30T10:08:47.974Z,16.57
2019-03-30T10:11:16.302Z,15.70
2019-03-30T10:13:44.626Z,12.88
2019-03-30T10:16:13.393Z,11.48
2019-03-30T10:18:41.713Z,14.03
2019-03-30T10:21:10.018Z,16.75
2019-03-30T10:23:38.350Z,22.93
2019-03-30T10:26:06.652Z,20.97
2019-03-30T10:28:34.961Z,14.98
2019-03-30T10:31:03.262Z,16.40
2019-03-30T10:33:31.614Z,12.68
2019-03-30T10:35:59.913Z,17.15
2019-03-30T10:38:28.239Z,14.33
2019-03-30T10:40:56.544Z,12.70
2019-03-30T10:43:24.869Z,11.88
2019-03-30T10:45:53.258Z,10.98
2019-03-30T10:48:21.574Z,12.07
2019-03-30T10:50:50.288Z,11.20
2019-03-30T10:53:18.599Z,12.47
2019-03-30T10:55:46.887Z,15.85
2019-03-30T10:58:15.173Z,13.30
2019-03-30T11:00:43.549Z,14.33
2019-03-30T11:03:11.856Z,15.23
2019-03-30T11:05:40.483Z,18.37
2019-03-30T11:08:08.805Z,14.87
2019-03-30T11:10:37.123Z,14.73
2019-03-30T11:13:05.653Z,18.07
2019-03-30T11:15:34.502Z,22.35
2019-03-30T11:18:02.860Z,20.40
2019-03-30T11:20:31.179Z,24.05
2019-03-30T11:22:59.824Z,20.92
2019-03-30T11:25:28.118Z,21.97
2019-03-30T11:27:56.438Z,17.27
2019-03-30T11:30:24.783Z,16.47
2019-03-30T11:32:53.083Z,17.73
2019-03-30T11:35:21.383Z,18.67
2019-03-30T11:37:49.708Z,12.30
2019-03-30T11:40:17.998Z,14.43
2019-03-30T11:42:46.380Z,16.37
2019-03-30T11:45:15.028Z,18.90
2019-03-30T11:47:43.619Z,14.20
2019-03-30T11:50:12.090Z,13.08
2019-03-30T11:52:40.416Z,18.15
2019-03-30T11:55:21.219Z,16.00
2019-03-30T11:57:38.843Z,17.37
2019-03-30T12:00:07.871Z,19.40
2019-03-30T12:02:36.183Z,19.40
2019-03-30T12:05:06.520Z,15.15
2019-03-30T12:07:34.873Z,16.67
2019-03-30T12:10:03.445Z,15.10
2019-03-30T12:12:31.760Z,18.65
2019-03-30T12:15:00.495Z,16.32
2019-03-30T12:17:28.719Z,18.07
2019-03-30T12:19:57.035Z,15.88
2019-03-30T12:22:25.343Z,16.97
2019-03-30T12:24:53.654Z,14.15
2019-03-30T12:27:22.385Z,15.13
2019-03-30T12:29:50.692Z,14.95
2019-03-30T12:32:19.339Z,10.85
2019-03-30T12:34:47.643Z,10.68
2019-03-30T12:37:15.946Z,12.10
2019-03-30T12:39:44.254Z,11.30
2019-03-30T12:42:12.543Z,12.17
2019-03-30T12:44:40.858Z,11.53
2019-03-30T12:47:10.494Z,12.80
2019-03-30T12:49:38.950Z,12.98
2019-03-30T12:52:07.255Z,11.50
2019-03-30T12:54:35.627Z,12.00
2019-03-30T12:57:04.262Z,14.30
2019-03-30T12:59:32.578Z,12.07
2019-03-30T13:02:00.882Z,11.45
2019-03-30T13:04:29.186Z,12.18
2019-03-30T13:06:57.490Z,16.17
2019-03-30T13:09:25.902Z,11.55
2019-03-30T13:11:54.194Z,11.68
2019-03-30T13:14:22.522Z,11.68
2019-03-30T13:16:50.815Z,12.75
2019-03-30T13:19:19.207Z,12.50
2019-03-30T13:21:53.072Z,12.03
2019-03-30T13:24:17.583Z,11.50
2019-03-30T13:26:45.897Z,11.83
2019-03-30T13:29:14.514Z,13.83
2019-03-30T13:31:42.830Z,13.30
2019-03-30T13:34:11.117Z,14.45
2019-03-30T13:36:45.122Z,12.18
2019-03-30T13:39:13.583Z,13.20
2019-03-30T13:41:41.891Z,11.28
2019-03-30T13:44:10.513Z,10.75
2019-03-30T13:46:38.841Z,10.80
2019-03-30T13:49:07.219Z,10.95
2019-03-30T13:51:35.613Z,11.90
2019-03-30T13:54:04.339Z,11.57
2019-03-30T13:56:32.706Z,13.10
2019-03-30T13:59:01.074Z,12.47
2019-03-30T14:01:29.384Z,13.50
2019-03-30T14:03:57.699Z,11.17
2019-03-30T14:06:25.987Z,14.57
2019-03-30T14:08:54.613Z,13.60
2019-03-30T14:11:22.937Z,13.15
2019-03-30T14:13:51.240Z,13.53
2019-03-30T14:16:19.533Z,11.60
2019-03-30T14:18:47.848Z,12.45
2019-03-30T14:21:16.225Z,12.45
2019-03-30T14:23:44.597Z,13.85
2019-03-30T14:26:13.028Z,10.25
2019-03-30T14:28:41.645Z,9.10
2019-03-30T14:31:09.968Z,15.00
2019-03-30T14:33:38.271Z,11.15
2019-03-30T14:36:06.663Z,13.90
2019-03-30T14:38:34.975Z,9.60
2019-03-30T14:41:03.963Z,12.27
2019-03-30T14:43:32.368Z,9.90
2019-03-30T14:46:00.692Z,13.98
2019-03-30T14:48:29.005Z,12.75
2019-03-30T14:50:57.666Z,12.43
2019-03-30T14:53:26.332Z,15.80
2019-03-30T14:55:54.716Z,9.90
2019-03-30T14:58:23.088Z,12.93
2019-03-30T15:00:51.410Z,11.78
2019-03-30T15:03:19.719Z,12.30
2019-03-30T15:05:48.093Z,13.10
2019-03-30T15:08:16.417Z,15.78
2019-03-30T15:10:44.699Z,12.80
2019-03-30T15:13:13.270Z,11.33
2019-03-30T15:15:41.566Z,12.85
2019-03-30T15:18:09.887Z,13.72
2019-03-30T15:20:38.178Z,14.03
2019-03-30T15:23:06.497Z,18.65
2019-03-30T15:25:34.802Z,17.40
2019-03-30T15:28:03.114Z,12.07
2019-03-30T15:30:31.442Z,13.33
2019-03-30T15:33:03.149Z,14.63
2019-03-30T15:35:29.785Z,10.98
2019-03-30T15:37:58.123Z,11.70
2019-03-30T15:40:26.411Z,11.90
2019-03-30T15:42:54.757Z,12.80
2019-03-30T15:45:23.054Z,12.88
2019-03-30T15:47:51.362Z,11.93
2019-03-30T15:50:20.261Z,19.80
2019-03-30T15:52:48.601Z,20.03
2019-03-30T15:55:16.922Z,14.23
2019-03-30T15:57:45.235Z,19.25
2019-03-30T16:00:15.606Z,23.02
2019-03-30T16:02:43.950Z,16.15
2019-03-30T16:05:15.506Z,15.40
2019-03-30T16:07:42.722Z,14.50
2019-03-30T16:10:11.279Z,16.43
2019-03-30T16:12:39.618Z,16.30
2019-03-30T16:15:09.184Z,12.73
2019-03-30T16:17:37.561Z,16.30
2019-03-30T16:20:07.001Z,12.37
2019-03-30T16:22:35.389Z,18.20
2019-03-30T16:25:04.955Z,33.30
2019-03-30T16:27:33.551Z,28.60
2019-03-30T16:30:02.246Z,17.30
2019-03-30T16:32:30.566Z,16.00
2019-03-30T16:34:58.857Z,13.00
2019-03-30T16:37:27.165Z,18.35
2019-03-30T16:39:55.490Z,17.20
2019-03-30T16:42:23.803Z,20.55
2019-03-30T16:44:52.405Z,27.60
2019-03-30T16:47:20.739Z,20.70
2019-03-30T16:49:49.063Z,16.10
2019-03-30T16:52:17.466Z,14.75
2019-03-30T16:54:46.030Z,17.02
2019-03-30T16:57:14.362Z,13.78
2019-03-30T16:59:42.655Z,13.08
2019-03-30T17:02:10.996Z,12.75
2019-03-30T17:04:39.657Z,13.48
2019-03-30T17:07:08.209Z,15.60
2019-03-30T17:09:36.805Z,13.17
2019-03-30T17:12:05.093Z,14.50
2019-03-30T17:14:33.419Z,22.15
2019-03-30T17:17:01.776Z,35.83
2019-03-30T17:19:30.087Z,20.75
2019-03-30T17:21:58.410Z,21.00
2019-03-30T17:24:26.727Z,23.38
2019-03-30T17:26:55.352Z,15.45
2019-03-30T17:29:23.939Z,14.70
2019-03-30T17:31:52.233Z,14.85
2019-03-30T17:34:20.910Z,21.37
2019-03-30T17:36:49.216Z,14.87
2019-03-30T17:39:17.523Z,16.20
2019-03-30T17:41:46.133Z,18.40
2019-03-30T17:44:14.542Z,19.95
2019-03-30T17:46:42.846Z,16.55
2019-03-30T17:49:11.475Z,15.40
2019-03-30T17:51:39.796Z,13.93
2019-03-30T17:54:08.114Z,15.98
2019-03-30T17:56:36.413Z,17.60
2019-03-30T17:59:04.939Z,18.82
2019-03-30T18:01:33.242Z,17.55
2019-03-30T18:04:01.582Z,15.93
2019-03-30T18:06:29.886Z,18.25
2019-03-30T18:08:58.255Z,16.48
2019-03-30T18:11:26.547Z,20.45
2019-03-30T18:13:55.156Z,18.87
2019-03-30T18:16:23.450Z,26.82
2019-03-30T18:18:52.126Z,17.32
2019-03-30T18:21:20.431Z,16.97
2019-03-30T18:23:48.773Z,24.12
2019-03-30T18:26:17.080Z,17.77
2019-03-30T18:28:45.635Z,20.48
2019-03-30T18:31:14.023Z,20.30
2019-03-30T18:33:42.918Z,16.32
2019-03-30T18:36:12.764Z,19.67
2019-03-30T18:38:41.081Z,23.90
2019-03-30T18:41:09.383Z,18.80
2019-03-30T18:43:37.696Z,18.43
2019-03-30T18:46:06.078Z,16.07
2019-03-30T18:48:34.367Z,18.52
2019-03-30T18:51:02.700Z,17.82
2019-03-30T18:53:31.003Z,16.87
2019-03-30T18:55:59.542Z,18.40
2019-03-30T18:58:40.947Z,20.30
2019-03-30T19:00:58.255Z,22.90
2019-03-30T19:03:26.572Z,21.33
2019-03-30T19:05:54.936Z,22.93
2019-03-30T19:08:23.272Z,25.02
2019-03-30T19:10:51.579Z,26.73
2019-03-30T19:13:19.907Z,24.35
2019-03-30T19:15:48.216Z,22.82
2019-03-30T19:18:16.782Z,22.95
2019-03-30T19:20:45.125Z,24.77
2019-03-30T19:23:13.423Z,25.15
2019-03-30T19:25:41.743Z,24.20
2019-03-30T19:28:10.504Z,23.10
2019-03-30T19:30:41.940Z,23.10
2019-03-30T19:33:08.863Z,26.42
2019-03-30T19:35:37.225Z,24.07
2019-03-30T19:38:05.540Z,24.10
2019-03-30T19:40:34.160Z,26.45
2019-03-30T19:43:02.558Z,25.95
2019-03-30T19:45:30.862Z,28.60
2019-03-30T19:47:59.684Z,26.90
2019-03-30T19:50:28.109Z,25.68
2019-03-30T19:52:56.419Z,26.50
2019-03-30T19:55:24.745Z,25.90
2019-03-30T19:57:53.053Z,22.80
2019-03-30T20:00:21.702Z,21.85
2019-03-30T20:02:50.273Z,26.10
2019-03-30T20:05:18.726Z,24.70
2019-03-30T20:07:47.337Z,28.00
2019-03-30T20:10:15.922Z,24.72
2019-03-30T20:12:44.600Z,27.43
2019-03-30T20:15:12.978Z,23.47
2019-03-30T20:17:41.560Z,25.43
2019-03-30T20:20:10.051Z,27.10
2019-03-30T20:22:38.361Z,24.03
2019-03-30T20:25:09.016Z,28.95
2019-03-30T20:27:37.315Z,22.20
2019-03-30T20:30:09.747Z,26.00
2019-03-30T20:32:38.136Z,28.47
2019-03-30T20:35:08.094Z,27.35
2019-03-30T20:37:36.671Z,26.45
2019-03-30T20:40:09.215Z,25.43
2019-03-30T20:42:37.601Z,26.33
2019-03-30T20:45:07.436Z,24.67
2019-03-30T20:47:35.837Z,28.53
2019-03-30T20:50:06.170Z,27.13
2019-03-30T20:52:34.501Z,24.40
2019-03-30T20:55:02.795Z,29.60
2019-03-30T20:57:31.120Z,25.23
2019-03-30T20:59:59.494Z,27.55
2019-03-30T21:02:27.820Z,25.25
2019-03-30T21:04:56.165Z,34.08
2019-03-30T21:07:24.831Z,30.52
2019-03-30T21:09:53.160Z,28.15
2019-03-30T21:12:21.783Z,28.55
2019-03-30T21:14:50.104Z,28.92
2019-03-30T21:17:18.407Z,30.80
2019-03-30T21:19:46.754Z,30.93
2019-03-30T21:22:15.052Z,32.93
2019-03-30T21:24:43.664Z,32.15
2019-03-30T21:27:11.986Z,29.42
2019-03-30T21:29:53.636Z,29.27
2019-03-30T21:32:10.376Z,29.00
2019-03-30T21:34:38.737Z,29.90
2019-03-30T21:37:07.393Z,28.67
2019-03-30T21:39:35.988Z,27.10
2019-03-30T21:42:04.315Z,27.90
2019-03-30T21:44:32.945Z,36.35
2019-03-30T21:47:01.267Z,29.75
2019-03-30T21:49:31.178Z,28.63
2019-03-30T21:51:59.551Z,28.98
2019-03-30T21:54:28.899Z,35.10
2019-03-30T21:56:57.218Z,27.73
2019-03-30T21:59:25.590Z,26.10
2019-03-30T22:01:53.898Z,26.12
2019-03-30T22:04:22.283Z,29.05
2019-03-30T22:06:50.914Z,26.90
2019-03-30T22:09:19.245Z,30.57
2019-03-30T22:11:47.620Z,34.08
2019-03-30T22:14:15.996Z,30.50
2019-03-30T22:16:44.292Z,30.50
2019-03-30T22:19:12.692Z,38.13
2019-03-30T22:21:40.986Z,30.62
2019-03-30T22:24:11.121Z,30.52
2019-03-30T22:26:39.508Z,31.68
2019-03-30T22:29:07.849Z,30.95
2019-03-30T22:31:36.162Z,33.50
2019-03-30T22:34:04.454Z,31.73
2019-03-30T22:36:32.782Z,30.88
2019-03-30T22:39:01.076Z,34.88
2019-03-30T22:41:29.478Z,30.95
2019-03-30T22:43:57.846Z,30.50
2019-03-30T22:46:26.172Z,31.13
2019-03-30T22:48:54.785Z,29.90
2019-03-30T22:51:23.093Z,35.73
2019-03-30T22:53:51.399Z,30.35
2019-03-30T22:56:19.716Z,32.38
2019-03-30T22:58:48.291Z,33.80
2019-03-30T23:01:18.312Z,29.42
2019-03-30T23:03:46.702Z,29.18
2019-03-30T23:06:15.285Z,31.50
2019-03-30T23:08:43.592Z,30.57
2019-03-30T23:11:11.966Z,31.33
2019-03-30T23:13:40.280Z,28.45
2019-03-30T23:16:08.633Z,31.90
2019-03-30T23:18:36.945Z,28.30
2019-03-30T23:21:05.241Z,27.77
2019-03-30T23:23:33.581Z,35.25
2019-03-30T23:26:02.110Z,29.95
2019-03-30T23:28:30.426Z,31.85
2019-03-30T23:30:58.750Z,30.87
2019-03-30T23:33:27.339Z,28.97
2019-03-30T23:35:55.630Z,29.15
2019-03-30T23:38:24.197Z,35.90
2019-03-30T23:40:52.543Z,30.40
2019-03-30T23:43:20.863Z,28.80
2019-03-30T23:45:49.336Z,30.82
2019-03-30T23:48:17.646Z,29.05
2019-03-30T23:50:45.940Z,28.10
2019-03-30T23:53:14.265Z,30.65
2019-03-30T23:55:42.561Z,31.15
2019-03-30T23:58:10.867Z,30.32
